Time;durP1;ratioP1;P1;durP2;ratioP2;P2;SDS_P1;SDS_P2;PMS_P1;PMS_P2;Temp;Humidity;BMP_temperature;BMP_pressure;BME280_temperature;BME280_humidity;BME280_pressure;Samples;Min_cycle;Max_cycle;Signal;HPM_P1;HPM_P2
2024/03/25 00:00:15;;;;;;;0.88;0.55;;;;;;;3.01;57.03;100320.31;5017142;28;20479;-71
2024/03/25 00:02:41;;;;;;;13.98;0.52;;;;;;;3.08;56.96;100318.47;5032183;28;20100;-70
2024/03/25 00:05:09;;;;;;;2.10;0.75;;;;;;;3.18;57.02;100331.19;5037180;28;20049;-74
2024/03/25 00:07:35;;;;;;;8.25;0.55;;;;;;;3.29;56.61;100323.28;5030828;28;20944;-72
2024/03/25 00:10:01;;;;;;;3.45;0.43;;;;;;;3.33;56.73;100330.09;5032855;28;20095;-71
2024/03/25 00:12:26;;;;;;;2.03;0.30;;;;;;;3.35;56.29;100330.91;5029680;28;20044;-67
2024/03/25 00:14:52;;;;;;;1.80;0.30;;;;;;;3.19;57.10;100343.22;5014200;28;20060;-70
2024/03/25 00:17:19;;;;;;;5.13;0.95;;;;;;;3.33;56.59;100342.16;5029281;28;20555;-70
2024/03/25 00:19:50;;;;;;;3.97;0.52;;;;;;;3.41;56.61;100337.72;5035472;28;20690;-71
2024/03/25 00:22:20;;;;;;;3.20;0.35;;;;;;;3.17;56.88;100342.41;5034514;28;20114;-70
2024/03/25 00:24:47;;;;;;;2.83;1.15;;;;;;;3.29;56.71;100340.50;5033856;28;20036;-73
2024/03/25 00:27:13;;;;;;;7.55;0.43;;;;;;;3.30;56.45;100340.47;5026661;28;20065;-71
2024/03/25 00:29:38;;;;;;;3.05;0.43;;;;;;;2.98;56.87;100338.44;5035966;28;20071;-71
2024/03/25 00:32:05;;;;;;;10.18;0.77;;;;;;;3.16;56.52;100338.13;5028021;28;20041;-73
2024/03/25 00:34:32;;;;;;;2.35;0.10;;;;;;;3.04;56.39;100340.91;5045834;28;20052;-74
2024/03/25 00:36:57;;;;;;;7.80;0.40;;;;;;;3.06;56.14;100341.72;5028904;28;20068;-71
2024/03/25 00:39:23;;;;;;;3.20;0.20;;;;;;;2.97;56.10;100336.72;5030924;28;20116;-70
2024/03/25 00:41:51;;;;;;;6.55;0.30;;;;;;;2.82;56.09;100342.16;5032401;28;20063;-76
2024/03/25 00:44:17;;;;;;;3.50;0.77;;;;;;;2.90;55.91;100335.97;5034868;28;20037;-71
2024/03/25 00:46:43;;;;;;;1.00;0.40;;;;;;;3.07;55.15;100325.38;5023021;28;20036;-71
2024/03/25 00:49:09;;;;;;;3.03;0.52;;;;;;;3.04;55.36;100333.16;5025426;28;20037;-77
2024/03/25 00:51:35;;;;;;;1.45;0.17;;;;;;;2.81;56.02;100325.81;5035605;28;20036;-75
2024/03/25 00:54:01;;;;;;;1.75;0.63;;;;;;;3.10;55.19;100322.72;5027860;28;20548;-75
2024/03/25 00:56:27;;;;;;;3.00;0.30;;;;;;;3.14;54.55;100324.38;5039285;28;20090;-75
2024/03/25 00:58:52;;;;;;;3.65;0.20;;;;;;;3.01;54.83;100327.22;5033778;28;20127;-75
2024/03/25 01:01:18;;;;;;;3.92;0.50;;;;;;;3.01;55.01;100328.06;5029251;28;20028;-75
2024/03/25 01:03:43;;;;;;;3.83;0.35;;;;;;;2.88;55.06;100332.56;5033526;28;20076;-75
2024/03/25 01:06:10;;;;;;;6.63;0.73;;;;;;;2.94;55.00;100326.47;5010410;28;20040;-75
2024/03/25 01:08:35;;;;;;;7.50;0.50;;;;;;;2.59;55.99;100335.63;5047976;28;20041;-70
2024/03/25 01:11:04;;;;;;;8.68;0.52;;;;;;;2.81;55.62;100335.28;5035545;28;20071;-73
2024/03/25 01:13:30;;;;;;;7.45;0.50;;;;;;;3.00;55.67;100330.66;5029697;28;20094;-74
2024/03/25 01:15:56;;;;;;;3.28;0.50;;;;;;;3.02;55.47;100334.91;5012299;28;20044;-75
2024/03/25 01:18:21;;;;;;;1.08;0.32;;;;;;;3.08;54.95;100328.81;5037340;28;20032;-74
2024/03/25 01:20:46;;;;;;;5.22;0.60;;;;;;;3.04;55.22;100333.16;5031190;28;20421;-74
2024/03/25 01:23:12;;;;;;;4.47;0.50;;;;;;;3.00;55.25;100331.50;5026297;28;20051;-76
2024/03/25 01:25:37;;;;;;;3.70;0.60;;;;;;;2.93;55.93;100340.22;5031717;28;20104;-74
2024/03/25 01:28:03;;;;;;;7.63;0.63;;;;;;;2.84;56.21;100336.06;5029484;28;20037;-75
2024/03/25 01:30:29;;;;;;;10.98;1.30;;;;;;;2.86;56.00;100343.81;5030874;28;20139;-74
2024/03/25 01:32:55;;;;;;;7.80;0.35;;;;;;;2.77;56.28;100330.16;5028189;28;20099;-74
2024/03/25 01:35:20;;;;;;;6.47;0.47;;;;;;;2.68;56.56;100332.88;5029390;28;20028;-74
2024/03/25 01:37:46;;;;;;;4.28;1.10;;;;;;;2.60;56.63;100339.03;5030428;28;20110;-75
2024/03/25 01:40:12;;;;;;;11.90;1.08;;;;;;;2.60;56.28;100342.50;5029359;28;20029;-74
2024/03/25 01:42:38;;;;;;;6.60;0.50;;;;;;;2.43;56.68;100339.31;5027151;28;20060;-74
2024/03/25 01:45:04;;;;;;;4.70;1.10;;;;;;;2.65;56.45;100345.00;5030142;28;20041;-73
2024/03/25 01:47:35;;;;;;;3.38;0.47;;;;;;;2.74;56.15;100344.88;5029300;28;20122;-72
2024/03/25 01:50:03;;;;;;;4.23;0.80;;;;;;;2.76;55.39;100359.44;5027792;28;20029;-73
2024/03/25 01:52:30;;;;;;;7.28;1.63;;;;;;;2.76;55.17;100343.94;5025578;28;20035;-72
2024/03/25 01:54:56;;;;;;;4.38;0.57;;;;;;;2.68;55.03;100350.09;5033998;28;20274;-72
2024/03/25 01:57:22;;;;;;;8.10;2.17;;;;;;;2.18;56.95;100355.13;5025057;28;20039;-73
2024/03/25 01:59:48;;;;;;;2.83;0.30;;;;;;;2.46;56.50;100350.44;5033736;28;20029;-73
2024/03/25 02:02:13;;;;;;;5.45;0.52;;;;;;;2.62;55.89;100351.03;5026212;28;20055;-72
2024/03/25 02:04:40;;;;;;;3.65;0.68;;;;;;;2.69;56.04;100359.53;5031788;28;20040;-71
2024/03/25 02:07:08;;;;;;;10.18;0.90;;;;;;;2.70;56.10;100364.69;5027479;28;20114;-70
2024/03/25 02:09:35;;;;;;;9.52;0.73;;;;;;;2.83;55.96;100364.50;5027083;28;20035;-70
2024/03/25 02:12:02;;;;;;;1.90;0.30;;;;;;;2.79;55.90;100365.44;5033716;28;20037;-70
2024/03/25 02:14:30;;;;;;;8.63;0.43;;;;;;;2.87;55.91;100361.00;5027286;28;20016;-71
2024/03/25 02:16:55;;;;;;;9.93;0.70;;;;;;;2.96;55.98;100368.59;5032152;28;20779;-71
2024/03/25 02:19:24;;;;;;;8.05;0.63;;;;;;;2.91;55.94;100367.81;5021767;28;20040;-71
2024/03/25 02:21:49;;;;;;;10.63;1.42;;;;;;;2.83;56.33;100380.00;5030724;28;20966;-71
2024/03/25 02:24:19;;;;;;;12.57;0.65;;;;;;;2.41;57.41;100375.44;5022953;28;20036;-71
2024/03/25 02:26:45;;;;;;;7.75;1.40;;;;;;;2.53;57.18;100387.31;5039563;28;20048;-71
2024/03/25 02:29:10;;;;;;;4.93;0.55;;;;;;;2.88;56.41;100378.19;5023273;28;20131;-71
2024/03/25 02:31:35;;;;;;;6.90;1.17;;;;;;;2.96;55.89;100384.09;5036023;28;20127;-71
2024/03/25 02:34:01;;;;;;;9.15;0.93;;;;;;;2.85;56.13;100386.00;5021159;28;20064;-71
2024/03/25 02:36:27;;;;;;;3.53;0.95;;;;;;;2.92;55.68;100385.00;5060794;28;20127;-71
2024/03/25 02:38:53;;;;;;;9.07;0.68;;;;;;;3.13;55.36;100374.31;5029749;28;20036;-71
2024/03/25 02:41:19;;;;;;;2.70;0.32;;;;;;;3.14;55.48;100375.19;5028937;28;20039;-71
2024/03/25 02:43:44;;;;;;;2.55;0.98;;;;;;;3.09;55.58;100383.00;5027856;28;20043;-71
2024/03/25 02:46:10;;;;;;;5.10;0.32;;;;;;;3.19;55.07;100379.38;5022611;28;20032;-70
2024/03/25 02:48:35;;;;;;;3.15;0.52;;;;;;;3.00;55.64;100383.13;5029456;28;20052;-70
2024/03/25 02:51:01;;;;;;;12.27;0.47;;;;;;;3.11;55.37;100390.72;5026070;28;20144;-68
2024/03/25 02:53:29;;;;;;;11.30;0.65;;;;;;;3.16;55.35;100379.44;5030252;28;20029;-69
2024/03/25 02:55:54;;;;;;;0.93;0.38;;;;;;;3.03;55.89;100388.28;5029404;28;20094;-69
2024/03/25 02:58:20;;;;;;;4.75;0.73;;;;;;;2.90;56.05;100391.94;5032874;28;20052;-69
2024/03/25 03:00:45;;;;;;;9.15;0.82;;;;;;;2.20;57.85;100398.94;5025268;28;21069;-69
2024/03/25 03:03:11;;;;;;;12.00;2.42;;;;;;;2.44;57.54;100405.50;5025145;28;20037;-72
2024/03/25 03:05:36;;;;;;;7.55;0.63;;;;;;;2.40;57.13;100401.25;5027751;28;20152;-72
2024/03/25 03:08:07;;;;;;;6.95;0.47;;;;;;;2.35;57.96;100404.75;5028724;28;20825;-72
2024/03/25 03:10:32;;;;;;;4.88;0.60;;;;;;;2.60;57.56;100401.84;5028744;28;20036;-72
2024/03/25 03:12:58;;;;;;;6.20;1.60;;;;;;;2.56;57.28;100398.44;5036140;28;20044;-71
2024/03/25 03:15:24;;;;;;;5.53;0.77;;;;;;;2.63;56.89;100406.94;5027833;28;20033;-69
2024/03/25 03:17:49;;;;;;;3.45;0.25;;;;;;;2.67;56.20;100395.72;5024907;28;20037;-71
2024/03/25 03:20:14;;;;;;;8.13;0.73;;;;;;;2.87;55.22;100386.81;5028262;28;20035;-73
2024/03/25 03:22:42;;;;;;;9.18;0.20;;;;;;;2.72;55.36;100399.06;5025439;28;20051;-72
2024/03/25 03:25:10;;;;;;;4.35;0.70;;;;;;;2.62;55.00;100381.16;5027161;28;20029;-72
2024/03/25 03:27:35;;;;;;;7.35;0.50;;;;;;;2.67;54.59;100394.88;5027136;28;20045;-70
2024/03/25 03:30:01;;;;;;;1.70;0.20;;;;;;;2.83;54.14;100395.47;5033188;28;20043;-70
2024/03/25 03:32:26;;;;;;;1.10;0.38;;;;;;;2.71;54.07;100397.38;5037891;28;20041;-74
2024/03/25 03:34:52;;;;;;;5.70;0.65;;;;;;;2.42;54.60;100400.38;5032556;28;20506;-74
2024/03/25 03:37:17;;;;;;;5.63;0.40;;;;;;;2.67;53.41;100400.88;5024862;28;20064;-75
2024/03/25 03:39:43;;;;;;;9.98;0.60;;;;;;;2.55;53.54;100401.91;5029284;28;20090;-74
2024/03/25 03:42:08;;;;;;;8.75;0.30;;;;;;;2.51;53.59;100414.84;5031738;28;20123;-74
2024/03/25 03:44:36;;;;;;;10.05;1.55;;;;;;;2.28;53.79;100416.00;5034950;28;20025;-74
2024/03/25 03:47:01;;;;;;;3.88;0.20;;;;;;;2.37;53.98;100420.19;5035072;28;20123;-74
2024/03/25 03:49:27;;;;;;;5.20;0.45;;;;;;;2.35;53.92;100411.63;5027957;28;20021;-74
2024/03/25 03:51:52;;;;;;;6.00;0.90;;;;;;;2.47;53.50;100413.22;5033797;28;20032;-70
2024/03/25 03:54:18;;;;;;;12.02;0.98;;;;;;;2.38;53.49;100410.72;5028914;28;20049;-75
2024/03/25 03:56:43;;;;;;;6.18;0.50;;;;;;;2.47;53.41;100413.22;5033996;28;20095;-76
2024/03/25 03:59:09;;;;;;;5.28;0.82;;;;;;;2.51;52.73;100417.44;5026609;28;20079;-76
2024/03/25 04:01:34;;;;;;;4.22;0.90;;;;;;;2.54;52.40;100414.81;5034944;28;20400;-76
2024/03/25 04:04:02;;;;;;;9.68;0.88;;;;;;;2.31;53.12;100408.25;5034880;28;20087;-77
2024/03/25 04:06:27;;;;;;;6.25;0.38;;;;;;;2.35;52.84;100415.09;5016248;28;20040;-74
2024/03/25 04:08:53;;;;;;;6.55;0.60;;;;;;;2.31;52.87;100417.69;5032908;28;20047;-73
2024/03/25 04:11:18;;;;;;;8.48;0.55;;;;;;;2.37;52.67;100409.03;5021868;28;20031;-75
2024/03/25 04:13:46;;;;;;;9.90;0.95;;;;;;;2.30;52.67;100403.94;5031528;28;20040;-74
2024/03/25 04:16:12;;;;;;;1.60;0.38;;;;;;;2.13;53.31;100413.63;5027758;28;20020;-74
2024/03/25 04:18:37;;;;;;;4.80;0.55;;;;;;;2.00;53.94;100423.25;5032514;28;20506;-74
2024/03/25 04:21:04;;;;;;;6.05;1.05;;;;;;;2.10;53.81;100430.00;5033211;28;20033;-74
2024/03/25 04:23:29;;;;;;;9.50;1.35;;;;;;;2.39;53.17;100440.81;5030231;28;20044;-69
2024/03/25 04:25:55;;;;;;;14.43;1.38;;;;;;;2.46;52.95;100434.69;5029271;28;20080;-70
2024/03/25 04:28:22;;;;;;;11.02;0.75;;;;;;;2.53;52.98;100438.91;5028675;28;20039;-70
2024/03/25 04:30:52;;;;;;;9.75;0.95;;;;;;;2.56;53.22;100438.88;5028169;28;20041;-75
2024/03/25 04:33:18;;;;;;;9.43;0.82;;;;;;;2.61;52.97;100437.06;5029798;28;20033;-75
2024/03/25 04:35:45;;;;;;;6.63;0.60;;;;;;;2.57;52.78;100435.41;5028854;28;20047;-74
2024/03/25 04:38:10;;;;;;;11.27;0.85;;;;;;;2.49;52.98;100442.44;5029603;28;20612;-74
2024/03/25 04:40:36;;;;;;;3.90;0.57;;;;;;;2.40;52.10;100432.19;5031176;28;20060;-73
2024/03/25 04:43:02;;;;;;;15.35;2.00;;;;;;;2.70;50.69;100442.09;5033171;28;20071;-73
2024/03/25 04:45:28;;;;;;;4.57;1.20;;;;;;;2.73;50.20;100449.81;5027055;28;20910;-73
2024/03/25 04:47:53;;;;;;;11.60;1.55;;;;;;;2.85;50.27;100440.19;5028953;28;20033;-73
2024/03/25 04:50:19;;;;;;;9.50;1.05;;;;;;;3.07;49.48;100443.28;5029975;28;20067;-75
2024/03/25 04:52:44;;;;;;;10.40;1.63;;;;;;;3.05;49.47;100450.22;5030643;28;20712;-74
2024/03/25 04:55:10;;;;;;;9.07;0.65;;;;;;;3.05;48.42;100457.97;5039073;28;20147;-75
2024/03/25 04:57:35;;;;;;;5.63;0.32;;;;;;;3.07;48.55;100457.06;5019731;28;20040;-72
2024/03/25 05:00:02;;;;;;;5.28;0.80;;;;;;;2.82;48.10;100453.13;5031958;28;20038;-71
2024/03/25 05:02:27;;;;;;;12.00;1.92;;;;;;;2.73;47.56;100457.56;5025526;28;20378;-72
2024/03/25 05:04:55;;;;;;;4.40;0.40;;;;;;;2.96;47.25;100462.38;5032014;28;20029;-69
2024/03/25 05:07:20;;;;;;;3.72;0.40;;;;;;;2.80;46.73;100468.66;5028665;28;20072;-69
2024/03/25 05:09:46;;;;;;;4.82;0.38;;;;;;;2.85;46.59;100474.59;5028666;28;20888;-69
2024/03/25 05:12:11;;;;;;;4.40;0.40;;;;;;;2.48;46.34;100466.50;5029646;28;20462;-70
2024/03/25 05:14:37;;;;;;;5.25;0.40;;;;;;;2.75;46.31;100470.44;5019176;28;20504;-69
2024/03/25 05:17:04;;;;;;;4.43;0.38;;;;;;;2.98;45.63;100467.53;5029157;28;20036;-69
2024/03/25 05:19:30;;;;;;;9.43;0.55;;;;;;;2.96;45.72;100480.47;5027167;28;20036;-69
2024/03/25 05:21:56;;;;;;;3.80;0.50;;;;;;;3.25;45.50;100470.53;5031567;28;20689;-71
2024/03/25 05:24:21;;;;;;;3.85;0.40;;;;;;;3.26;46.19;100477.44;5027677;28;20037;-71
2024/03/25 05:26:47;;;;;;;7.82;0.50;;;;;;;3.22;46.68;100484.38;5032886;28;20032;-69
2024/03/25 05:29:12;;;;;;;10.48;0.75;;;;;;;3.16;46.79;100482.75;5027179;28;20210;-69
2024/03/25 05:31:39;;;;;;;4.47;0.90;;;;;;;3.10;46.93;100495.75;5039495;28;20091;-69
2024/03/25 05:34:08;;;;;;;7.15;0.75;;;;;;;2.97;47.17;100496.78;5026740;28;20917;-68
2024/03/25 05:36:33;;;;;;;8.40;1.08;;;;;;;3.22;46.96;100496.44;5028393;28;20487;-68
2024/03/25 05:38:59;;;;;;;7.82;0.93;;;;;;;2.85;47.55;100494.41;5031437;28;20325;-74
2024/03/25 05:41:25;;;;;;;4.40;0.50;;;;;;;2.65;48.42;100500.69;5012037;28;20577;-75
2024/03/25 05:43:50;;;;;;;6.68;0.63;;;;;;;2.86;48.65;100507.28;5031229;28;20561;-74
2024/03/25 05:46:16;;;;;;;7.07;0.50;;;;;;;3.10;48.85;100508.66;5031166;28;20055;-68
2024/03/25 05:48:41;;;;;;;12.27;1.02;;;;;;;3.06;49.48;100509.56;5039026;28;20048;-70
2024/03/25 05:51:09;;;;;;;3.33;0.40;;;;;;;3.25;48.90;100498.94;5028878;28;20036;-69
2024/03/25 05:53:37;;;;;;;6.97;0.60;;;;;;;3.38;48.94;100495.34;5028138;28;20114;-69
2024/03/25 05:56:03;;;;;;;9.35;0.73;;;;;;;3.33;49.02;100494.56;5027932;28;20036;-72
2024/03/25 05:58:29;;;;;;;11.05;0.75;;;;;;;3.45;49.01;100493.50;5026913;28;20040;-69
2024/03/25 06:00:54;;;;;;;7.90;0.77;;;;;;;3.39;48.82;100499.63;5028794;28;20108;-71
2024/03/25 06:03:20;;;;;;;9.73;1.05;;;;;;;3.44;48.82;100505.56;5029485;28;20771;-72
2024/03/25 06:05:46;;;;;;;10.63;0.35;;;;;;;3.36;48.78;100503.13;5029356;28;20041;-73
2024/03/25 06:08:26;;;;;;;4.63;0.65;;;;;;;3.49;48.77;100505.50;5029311;28;20074;-73
2024/03/25 06:10:53;;;;;;;8.80;1.98;;;;;;;4.29;48.42;100501.47;5027787;28;20116;-74
2024/03/25 06:13:19;;;;;;;8.57;0.32;;;;;;;4.12;47.15;100501.78;5029140;28;20033;-74
2024/03/25 06:15:48;;;;;;;8.90;1.23;;;;;;;5.20;45.07;100496.06;5030942;28;20078;-78
2024/03/25 06:18:13;;;;;;;1.52;0.43;;;;;;;5.43;44.15;100497.25;5031467;28;20028;-72
2024/03/25 06:20:39;;;;;;;10.95;0.82;;;;;;;6.34;43.53;100498.34;5028504;28;20177;-72
2024/03/25 06:23:04;;;;;;;4.55;0.25;;;;;;;8.14;40.14;100500.44;5026648;28;20068;-71
2024/03/25 06:25:30;;;;;;;1.75;0.30;;;;;;;7.78;39.52;100493.03;5026287;28;20024;-72
2024/03/25 06:27:58;;;;;;;7.78;1.05;;;;;;;6.75;42.49;100498.03;5026769;28;20563;-72
2024/03/25 06:35:52;;;;;;;10.10;0.47;;;;;;;5.08;45.99;100511.91;5026729;28;20028;-73
2024/03/25 06:38:17;;;;;;;3.75;0.30;;;;;;;5.96;44.64;100515.78;5032381;28;20402;-73
2024/03/25 06:40:45;;;;;;;5.93;0.85;;;;;;;5.62;44.06;100511.47;5036454;28;20032;-73
2024/03/25 06:43:10;;;;;;;3.08;0.40;;;;;;;7.73;40.98;100510.53;5028001;28;20124;-72
2024/03/25 06:45:36;;;;;;;4.57;0.30;;;;;;;10.17;36.95;100513.31;5025902;28;20712;-72
2024/03/25 06:48:01;;;;;;;3.92;0.50;;;;;;;12.00;33.68;100515.06;5026987;28;20037;-72
2024/03/25 06:50:27;;;;;;;1.75;0.45;;;;;;;13.42;30.77;100519.59;5025560;28;20048;-72
2024/03/25 06:52:53;;;;;;;8.80;0.63;;;;;;;14.26;30.33;100520.81;5028156;28;20053;-72
2024/03/25 06:55:22;;;;;;;7.28;0.95;;;;;;;12.34;31.37;100529.06;5033931;28;20076;-72
2024/03/25 06:57:48;;;;;;;5.57;0.88;;;;;;;9.54;35.97;100528.97;5020195;28;20052;-72
2024/03/25 07:00:14;;;;;;;3.72;0.38;;;;;;;8.12;38.35;100542.16;5028279;28;20384;-71
2024/03/25 07:02:40;;;;;;;7.35;0.45;;;;;;;7.12;40.78;100540.19;5022907;28;20049;-72
2024/03/25 07:05:07;;;;;;;6.00;0.65;;;;;;;6.54;41.89;100549.72;5026729;28;20057;-72
2024/03/25 07:07:36;;;;;;;5.45;0.28;;;;;;;5.50;44.00;100550.66;5021457;28;20051;-71
2024/03/25 07:10:02;;;;;;;7.35;0.25;;;;;;;5.33;44.25;100556.25;5013132;28;20391;-71
2024/03/25 07:12:28;;;;;;;6.47;0.47;;;;;;;4.77;46.57;100556.56;5022352;28;20032;-72
2024/03/25 07:14:57;;;;;;;5.38;0.28;;;;;;;5.42;46.18;100558.63;5032376;28;20025;-71
2024/03/25 07:17:22;;;;;;;3.92;0.30;;;;;;;5.44;46.09;100561.19;5025909;28;20076;-72
2024/03/25 07:19:48;;;;;;;7.63;0.77;;;;;;;5.43;45.53;100556.88;5033646;28;20123;-71
2024/03/25 07:22:14;;;;;;;5.30;0.47;;;;;;;6.17;44.04;100544.63;5031285;28;20048;-72
2024/03/25 07:24:42;;;;;;;3.67;1.50;;;;;;;7.92;41.70;100544.59;5026863;28;21274;-71
2024/03/25 07:27:09;;;;;;;9.05;0.88;;;;;;;8.09;39.85;100544.88;5031176;28;20502;-71
2024/03/25 07:29:35;;;;;;;2.85;0.73;;;;;;;8.85;39.15;100545.63;5023421;28;20178;-72
2024/03/25 07:32:00;;;;;;;6.88;0.50;;;;;;;9.73;37.59;100548.19;5031713;28;20147;-71
2024/03/25 07:34:26;;;;;;;4.18;0.32;;;;;;;10.38;35.26;100553.28;5026795;28;20079;-71
2024/03/25 07:36:52;;;;;;;5.63;1.17;;;;;;;9.63;36.07;100554.69;5033680;28;20119;-72
2024/03/25 07:39:17;;;;;;;6.70;0.80;;;;;;;8.71;37.83;100559.13;5030501;28;20043;-71
2024/03/25 07:41:43;;;;;;;2.88;0.35;;;;;;;9.74;37.21;100559.47;5028545;28;20033;-72
2024/03/25 07:44:08;;;;;;;6.60;0.80;;;;;;;10.16;36.20;100553.38;5029218;28;20041;-72
2024/03/25 07:46:34;;;;;;;4.10;0.22;;;;;;;10.62;34.99;100553.97;5030002;28;20041;-72
2024/03/25 07:49:02;;;;;;;4.30;0.45;;;;;;;10.89;35.85;100546.66;5031317;28;20089;-72
2024/03/25 07:51:28;;;;;;;7.03;0.45;;;;;;;10.31;35.18;100544.03;5044577;28;20098;-71
2024/03/25 07:53:54;;;;;;;8.73;0.40;;;;;;;9.52;35.93;100542.13;5033780;28;20036;-70
2024/03/25 07:56:21;;;;;;;5.78;0.52;;;;;;;10.27;33.33;100545.09;5032186;28;20043;-68
2024/03/25 07:58:46;;;;;;;2.83;0.57;;;;;;;10.38;33.12;100542.84;5026757;28;20044;-68
2024/03/25 08:01:11;;;;;;;5.03;1.13;;;;;;;12.75;31.12;100547.81;5026393;28;20069;-68
2024/03/25 08:03:37;;;;;;;2.40;0.40;;;;;;;14.49;28.80;100553.59;5026525;28;20037;-67
2024/03/25 08:06:03;;;;;;;7.10;0.32;;;;;;;15.55;26.35;100541.59;5034485;28;20036;-67
2024/03/25 08:08:29;;;;;;;4.55;0.45;;;;;;;15.74;26.26;100549.97;5024577;28;20061;-68
2024/03/25 08:10:55;;;;;;;3.83;0.30;;;;;;;16.26;26.45;100548.22;5029568;28;20128;-70
2024/03/25 08:13:21;;;;;;;4.68;0.50;;;;;;;13.90;27.47;100553.63;5029009;28;20041;-69
2024/03/25 08:15:46;;;;;;;7.97;0.30;;;;;;;13.88;28.29;100552.88;5022184;28;20047;-70
2024/03/25 08:18:12;;;;;;;5.38;0.38;;;;;;;11.50;31.92;100566.41;5028498;28;20045;-71
2024/03/25 08:20:38;;;;;;;4.55;0.40;;;;;;;11.40;33.06;100566.03;5026755;28;20090;-71
2024/03/25 08:23:05;;;;;;;7.68;0.40;;;;;;;12.24;30.91;100562.75;5029615;28;20041;-69
2024/03/25 08:25:31;;;;;;;4.38;0.32;;;;;;;13.02;30.47;100562.97;5028868;28;20036;-69
2024/03/25 08:27:57;;;;;;;3.00;0.63;;;;;;;12.19;30.98;100557.75;5026470;28;20103;-69
2024/03/25 08:30:22;;;;;;;3.75;0.63;;;;;;;11.16;32.93;100559.34;5029386;28;20067;-70
2024/03/25 08:32:48;;;;;;;4.78;0.30;;;;;;;13.05;30.77;100554.97;5023790;28;20033;-70
2024/03/25 08:35:14;;;;;;;3.90;0.50;;;;;;;14.05;28.77;100549.22;5031581;28;20410;-68
2024/03/25 08:37:39;;;;;;;2.55;0.30;;;;;;;15.35;27.61;100556.09;5023278;28;20044;-69
2024/03/25 08:40:06;;;;;;;4.68;0.40;;;;;;;15.14;26.80;100553.84;5034010;28;20040;-68
2024/03/25 08:42:31;;;;;;;4.50;0.47;;;;;;;15.04;27.25;100557.19;5029916;28;20052;-71
2024/03/25 08:44:59;;;;;;;6.13;0.30;;;;;;;14.84;26.78;100551.41;5038151;28;20162;-72
2024/03/25 08:47:29;;;;;;;8.38;0.43;;;;;;;15.02;27.00;100544.13;5026992;28;20037;-70
2024/03/25 08:49:55;;;;;;;6.07;0.32;;;;;;;14.55;27.94;100553.22;5032969;28;20095;-70
2024/03/25 08:52:22;;;;;;;7.15;0.98;;;;;;;14.49;27.43;100567.59;5029409;28;20041;-72
2024/03/25 08:54:49;;;;;;;4.95;0.50;;;;;;;13.91;28.33;100566.66;5033916;28;20043;-72
2024/03/25 08:57:14;;;;;;;5.13;0.50;;;;;;;14.64;25.98;100570.22;5014220;28;20040;-72
2024/03/25 08:59:40;;;;;;;10.48;0.68;;;;;;;12.84;28.56;100567.47;5022832;28;20044;-72
2024/03/25 09:02:07;;;;;;;10.07;0.30;;;;;;;10.77;30.72;100568.97;5032870;28;20100;-71
2024/03/25 09:04:33;;;;;;;8.50;0.63;;;;;;;11.09;30.72;100576.25;5022214;28;20029;-71
2024/03/25 09:06:58;;;;;;;3.70;0.30;;;;;;;10.57;31.22;100569.84;5030192;28;20060;-72
2024/03/25 09:12:08;;;;;;;6.30;0.30;;;;;;;9.83;32.98;100576.53;5030087;28;20041;-71
2024/03/25 09:14:33;;;;;;;6.22;0.55;;;;;;;9.42;33.86;100576.44;5021681;28;20032;-71
2024/03/25 09:16:59;;;;;;;3.33;0.20;;;;;;;8.97;34.30;100584.22;5030290;28;20103;-71
2024/03/25 09:19:25;;;;;;;8.90;0.30;;;;;;;8.84;34.00;100582.16;5025547;28;20035;-71
2024/03/25 09:21:51;;;;;;;2.53;0.30;;;;;;;8.46;34.83;100590.41;5028138;28;20401;-71
2024/03/25 09:24:17;;;;;;;1.83;0.13;;;;;;;7.99;34.97;100579.91;5024698;28;20044;-71
2024/03/25 09:26:43;;;;;;;3.75;0.90;;;;;;;7.99;34.55;100590.31;5025874;28;20029;-72
2024/03/25 09:29:12;;;;;;;3.28;0.30;;;;;;;7.86;35.26;100589.03;5027759;28;20081;-72
2024/03/25 09:31:38;;;;;;;4.45;0.52;;;;;;;7.98;35.61;100587.75;5028411;28;20065;-72
2024/03/25 09:34:04;;;;;;;10.88;0.70;;;;;;;7.65;35.05;100591.44;5029245;28;20123;-73
2024/03/25 09:36:29;;;;;;;2.15;0.15;;;;;;;7.98;35.72;100590.38;5027406;28;20603;-72
2024/03/25 09:38:55;;;;;;;7.10;0.28;;;;;;;8.05;34.97;100590.13;5030124;28;20123;-71
2024/03/25 09:41:21;;;;;;;4.20;0.30;;;;;;;7.56;35.44;100602.13;5025397;28;20056;-71
2024/03/25 09:43:55;;;;;;;4.90;0.20;;;;;;;7.47;36.35;100597.19;5019965;28;20094;-71
2024/03/25 09:46:22;;;;;;;2.20;0.20;;;;;;;7.78;35.99;100593.63;5040647;28;20032;-71
2024/03/25 09:48:49;;;;;;;4.63;0.20;;;;;;;7.39;37.19;100593.97;5026558;28;20424;-71
2024/03/25 09:51:14;;;;;;;6.43;0.43;;;;;;;6.95;37.94;100590.97;5028208;28;20059;-71
2024/03/25 09:53:40;;;;;;;5.30;0.25;;;;;;;6.67;38.45;100600.41;5023705;28;20041;-71
2024/03/25 09:56:06;;;;;;;2.88;0.13;;;;;;;7.19;37.78;100595.44;5026832;28;20094;-71
2024/03/25 09:58:33;;;;;;;3.50;0.20;;;;;;;7.85;37.36;100593.38;5025608;28;20802;-72
2024/03/25 10:00:59;;;;;;;3.53;0.20;;;;;;;7.77;37.51;100594.53;5025919;28;20094;-71
2024/03/25 10:03:25;;;;;;;3.85;0.20;;;;;;;8.15;36.44;100591.50;5029113;28;20066;-71
2024/03/25 10:05:50;;;;;;;3.28;0.20;;;;;;;8.08;36.06;100592.59;5023465;28;20032;-72
2024/03/25 10:08:22;;;;;;;4.72;0.35;;;;;;;8.28;35.04;100593.69;5028942;28;20033;-71
2024/03/25 10:10:47;;;;;;;3.17;0.20;;;;;;;8.78;35.19;100585.81;5022533;28;20032;-70
2024/03/25 10:13:13;;;;;;;0.55;0.10;;;;;;;9.11;34.47;100588.06;5029870;28;20337;-71
2024/03/25 10:15:38;;;;;;;5.63;0.47;;;;;;;9.19;35.08;100586.03;5021912;28;20036;-71
2024/03/25 10:18:04;;;;;;;6.90;0.25;;;;;;;9.11;34.69;100594.13;5027082;28;20047;-71
2024/03/25 10:20:29;;;;;;;4.05;0.30;;;;;;;9.30;35.10;100593.44;5026660;28;20112;-69
2024/03/25 10:22:55;;;;;;;3.33;0.40;;;;;;;8.90;35.42;100594.97;5020731;28;20105;-70
2024/03/25 10:25:27;;;;;;;3.40;0.30;;;;;;;9.65;33.61;100599.84;5027200;28;20116;-71
2024/03/25 10:27:59;;;;;;;6.95;0.20;;;;;;;9.91;33.87;100592.75;5020890;28;20049;-70
2024/03/25 10:30:26;;;;;;;1.77;0.20;;;;;;;10.01;33.60;100596.66;5028459;28;20035;-70
2024/03/25 10:32:59;;;;;;;4.88;0.45;;;;;;;9.67;32.75;100600.63;5021409;28;20044;-69
2024/03/25 10:35:30;;;;;;;5.93;0.10;;;;;;;9.47;32.94;100600.59;5026700;28;20036;-70
2024/03/25 10:37:59;;;;;;;2.88;0.10;;;;;;;9.69;33.18;100600.56;5019780;28;20339;-70
2024/03/25 10:40:30;;;;;;;3.95;0.90;;;;;;;9.34;33.71;100606.31;5030446;28;20035;-70
2024/03/25 10:43:09;;;;;;;3.80;0.43;;;;;;;9.38;33.88;100601.78;5019637;28;20121;-71
2024/03/25 10:45:42;;;;;;;2.83;0.20;;;;;;;8.96;34.57;100595.59;5026007;28;20068;-70
2024/03/25 10:48:28;;;;;;;3.45;0.20;;;;;;;8.61;35.55;100606.44;5028193;28;20066;-71
2024/03/25 10:50:55;;;;;;;1.45;0.17;;;;;;;8.04;36.20;100609.22;5021419;28;20060;-71
2024/03/25 10:53:23;;;;;;;8.32;0.40;;;;;;;8.21;36.04;100606.06;5029584;28;20050;-71
2024/03/25 10:55:50;;;;;;;7.00;0.73;;;;;;;7.82;37.02;100613.44;5022279;28;20029;-70
2024/03/25 10:58:16;;;;;;;3.58;0.52;;;;;;;7.16;40.69;100618.09;5029597;28;20058;-70
2024/03/25 11:00:43;;;;;;;4.15;0.40;;;;;;;6.94;42.66;100623.06;5018120;28;20041;-71
2024/03/25 11:03:10;;;;;;;4.07;0.60;;;;;;;6.91;42.98;100624.00;5028088;28;20106;-69
2024/03/25 11:05:37;;;;;;;6.32;0.50;;;;;;;6.91;44.42;100621.41;5027040;28;20567;-71
2024/03/25 11:08:13;;;;;;;3.03;0.68;;;;;;;6.91;44.61;100614.44;5022506;28;20044;-70
2024/03/25 11:10:43;;;;;;;2.35;0.20;;;;;;;6.78;45.19;100613.09;5021887;28;20446;-72
2024/03/25 11:13:13;;;;;;;2.65;0.30;;;;;;;7.51;44.58;100614.38;5035346;28;20040;-70
2024/03/25 11:15:51;;;;;;;3.35;0.77;;;;;;;8.15;44.27;100606.25;5023194;28;20033;-71
2024/03/25 11:18:18;;;;;;;3.67;0.45;;;;;;;9.56;41.53;100601.06;5033551;28;20037;-71
2024/03/25 11:20:44;;;;;;;5.25;0.60;;;;;;;10.21;38.24;100591.47;5019929;28;20044;-71
2024/03/25 11:23:14;;;;;;;2.33;0.50;;;;;;;9.64;39.98;100587.72;5028339;28;20065;-71
2024/03/25 11:25:41;;;;;;;6.57;0.20;;;;;;;10.56;37.53;100590.81;5017427;28;20065;-71
2024/03/25 11:28:09;;;;;;;6.38;0.63;;;;;;;10.96;36.58;100587.28;5028687;28;20045;-70
2024/03/25 11:30:36;;;;;;;1.67;0.20;;;;;;;10.66;35.17;100588.63;5028044;28;20098;-70
2024/03/25 11:33:04;;;;;;;5.03;0.30;;;;;;;10.04;37.08;100583.50;5021274;28;20166;-70
2024/03/25 11:35:37;;;;;;;6.07;0.25;;;;;;;11.02;36.88;100580.94;5025974;28;20032;-70